TOM790 EGCC-HEGN
Flight info
| Callsign | TOM790 |
|---|---|
| Flight time | N/A |
| Altitude | 35000 |
| Route | LISTO2S LISTO P18 TELBA L151 MID UL612 OGULO DCT OKASI DCT OKEKO DCT MOU DCT MADIV DCT MOKIP DCT TUFTA DCT KOGAS DCT MEDAM DCT NITAM DCT MOGBO DCT CDC DCT BELIX UM728 SALUN N705 MMA P751 DASUM Y234 FYM M872 BOPOB BOPOB1A |
| Aircraft | B38M/M-SDE1FGHILORVWXY/HB1 |
Departure
| Time | N/A |
|---|---|
| Airport | Manchester Airport (EGCC) |
Arrival
| Time | 2026-05-06 21:52 |
|---|---|
| Airport | Hurghada International Airport (HEGN) |
| Time | Latitude | Longitude | Altitude | Speed | Heading |
|---|---|---|---|---|---|
| 2026-05-06 21:28 | 27.95134 | 32.22207 | 33548 ft | 490 kts | 123° |
| 2026-05-06 21:28 | 27.93471 | 32.25654 | 32548 ft | 495 kts | 123° |
| 2026-05-06 21:28 | 27.91848 | 32.29017 | 31923 ft | 491 kts | 122° |
| 2026-05-06 21:28 | 27.90232 | 32.32361 | 31561 ft | 481 kts | 123° |
| 2026-05-06 21:29 | 27.88638 | 32.35654 | 31198 ft | 472 kts | 123° |
| 2026-05-06 21:29 | 27.87074 | 32.38885 | 30757 ft | 467 kts | 123° |
| 2026-05-06 21:29 | 27.85522 | 32.42091 | 30207 ft | 464 kts | 123° |
| 2026-05-06 21:29 | 27.83973 | 32.45287 | 29586 ft | 462 kts | 123° |
| 2026-05-06 21:30 | 27.82437 | 32.48453 | 29056 ft | 458 kts | 122° |
| 2026-05-06 21:30 | 27.80917 | 32.51583 | 28617 ft | 451 kts | 122° |
| 2026-05-06 21:30 | 27.79418 | 32.54669 | 28157 ft | 446 kts | 122° |
| 2026-05-06 21:30 | 27.77930 | 32.57729 | 27678 ft | 442 kts | 122° |
| 2026-05-06 21:31 | 27.76461 | 32.60751 | 27225 ft | 437 kts | 122° |
| 2026-05-06 21:31 | 27.75005 | 32.63739 | 26753 ft | 433 kts | 122° |
| 2026-05-06 21:31 | 27.73567 | 32.66691 | 26320 ft | 429 kts | 122° |
| 2026-05-06 21:31 | 27.72137 | 32.69624 | 25885 ft | 425 kts | 122° |
| 2026-05-06 21:32 | 27.70713 | 32.72544 | 25453 ft | 422 kts | 122° |
| 2026-05-06 21:32 | 27.67900 | 32.78302 | 24591 ft | 416 kts | 122° |
| 2026-05-06 21:32 | 27.66508 | 32.81151 | 24168 ft | 414 kts | 122° |
| 2026-05-06 21:33 | 27.65129 | 32.83969 | 23756 ft | 411 kts | 121° |
| 2026-05-06 21:33 | 27.63750 | 32.86784 | 23296 ft | 409 kts | 121° |
| 2026-05-06 21:33 | 27.62380 | 32.89581 | 22830 ft | 406 kts | 121° |
| 2026-05-06 21:33 | 27.61025 | 32.92345 | 22420 ft | 402 kts | 121° |
| 2026-05-06 21:34 | 27.59678 | 32.95092 | 22023 ft | 398 kts | 121° |
| 2026-05-06 21:34 | 27.58348 | 32.97800 | 21623 ft | 395 kts | 121° |
| 2026-05-06 21:34 | 27.56918 | 33.00412 | 21066 ft | 387 kts | 127° |
| 2026-05-06 21:34 | 27.55427 | 33.02909 | 20434 ft | 382 kts | 126° |
| 2026-05-06 21:35 | 27.53964 | 33.05390 | 19752 ft | 379 kts | 126° |
| 2026-05-06 21:35 | 27.52523 | 33.07852 | 19193 ft | 373 kts | 126° |
| 2026-05-06 21:35 | 27.51100 | 33.10292 | 18772 ft | 371 kts | 126° |
| 2026-05-06 21:35 | 27.49698 | 33.12698 | 18405 ft | 365 kts | 126° |
| 2026-05-06 21:36 | 27.48317 | 33.15068 | 18003 ft | 363 kts | 126° |
| 2026-05-06 21:36 | 27.46936 | 33.17438 | 17600 ft | 360 kts | 126° |
| 2026-05-06 21:36 | 27.45567 | 33.19784 | 17240 ft | 357 kts | 126° |
| 2026-05-06 21:36 | 27.44210 | 33.22111 | 16896 ft | 354 kts | 126° |
| 2026-05-06 21:37 | 27.42865 | 33.24414 | 16543 ft | 351 kts | 126° |
| 2026-05-06 21:37 | 27.41530 | 33.26701 | 16182 ft | 348 kts | 126° |
| 2026-05-06 21:37 | 27.40204 | 33.28968 | 15833 ft | 346 kts | 126° |
| 2026-05-06 21:37 | 27.38893 | 33.31211 | 15478 ft | 343 kts | 126° |
| 2026-05-06 21:38 | 27.37585 | 33.33447 | 15140 ft | 341 kts | 126° |
| 2026-05-06 21:38 | 27.36284 | 33.35670 | 14799 ft | 339 kts | 126° |
| 2026-05-06 21:38 | 27.34991 | 33.37878 | 14451 ft | 337 kts | 126° |
| 2026-05-06 21:38 | 27.33710 | 33.40065 | 14109 ft | 335 kts | 126° |
| 2026-05-06 21:39 | 27.32427 | 33.42253 | 13763 ft | 334 kts | 126° |
| 2026-05-06 21:39 | 27.31154 | 33.44425 | 13380 ft | 332 kts | 126° |
| 2026-05-06 21:39 | 27.29899 | 33.46563 | 13026 ft | 330 kts | 126° |
| 2026-05-06 21:39 | 27.28645 | 33.48700 | 12679 ft | 328 kts | 125° |
| 2026-05-06 21:40 | 27.27395 | 33.50828 | 12341 ft | 325 kts | 125° |
| 2026-05-06 21:40 | 27.26148 | 33.52949 | 12003 ft | 323 kts | 125° |
| 2026-05-06 21:40 | 27.24917 | 33.55044 | 11670 ft | 321 kts | 125° |
| 2026-05-06 21:40 | 27.23691 | 33.57128 | 11337 ft | 319 kts | 125° |
| 2026-05-06 21:41 | 27.22478 | 33.59190 | 11015 ft | 317 kts | 125° |
| 2026-05-06 21:41 | 27.21265 | 33.61250 | 10684 ft | 315 kts | 125° |
| 2026-05-06 21:41 | 27.20061 | 33.63288 | 10356 ft | 313 kts | 126° |
| 2026-05-06 21:41 | 27.18546 | 33.64983 | 10050 ft | 306 kts | 151° |
| 2026-05-06 21:42 | 27.16613 | 33.65849 | 9841 ft | 296 kts | 167° |
| 2026-05-06 21:42 | 27.14667 | 33.66458 | 9548 ft | 292 kts | 167° |
| 2026-05-06 21:42 | 27.12688 | 33.67068 | 9224 ft | 290 kts | 167° |
| 2026-05-06 21:42 | 27.10744 | 33.67656 | 8902 ft | 288 kts | 167° |
| 2026-05-06 21:43 | 27.08814 | 33.68234 | 8597 ft | 286 kts | 167° |
| 2026-05-06 21:43 | 27.06901 | 33.68803 | 8281 ft | 284 kts | 167° |
| 2026-05-06 21:43 | 27.04994 | 33.69368 | 7975 ft | 282 kts | 168° |
| 2026-05-06 21:43 | 27.03103 | 33.69929 | 7655 ft | 279 kts | 168° |
| 2026-05-06 21:44 | 27.01228 | 33.70485 | 7228 ft | 277 kts | 167° |
| 2026-05-06 21:44 | 26.99376 | 33.71032 | 6821 ft | 275 kts | 167° |
| 2026-05-06 21:44 | 26.97537 | 33.71576 | 6336 ft | 272 kts | 167° |
| 2026-05-06 21:44 | 26.95746 | 33.72105 | 5841 ft | 270 kts | 167° |
| 2026-05-06 21:45 | 26.93925 | 33.72644 | 5310 ft | 270 kts | 167° |
| 2026-05-06 21:45 | 26.92154 | 33.73319 | 4808 ft | 269 kts | 149° |
| 2026-05-06 21:45 | 26.90897 | 33.74805 | 4420 ft | 263 kts | 114° |
| 2026-05-06 21:45 | 26.90539 | 33.76786 | 4144 ft | 260 kts | 86° |
| 2026-05-06 21:46 | 26.90897 | 33.78750 | 3972 ft | 258 kts | 65° |
| 2026-05-06 21:46 | 26.91905 | 33.80398 | 3870 ft | 252 kts | 40° |
| 2026-05-06 21:46 | 26.93358 | 33.81335 | 3791 ft | 240 kts | 17° |
| 2026-05-06 21:46 | 26.94915 | 33.81924 | 3704 ft | 232 kts | 18° |
| 2026-05-06 21:47 | 26.96410 | 33.82528 | 3595 ft | 227 kts | 19° |
| 2026-05-06 21:47 | 26.97851 | 33.83126 | 3517 ft | 214 kts | 19° |
| 2026-05-06 21:47 | 26.99179 | 33.83687 | 3390 ft | 195 kts | 19° |
| 2026-05-06 21:47 | 27.00414 | 33.84219 | 3139 ft | 186 kts | 17° |
| 2026-05-06 21:48 | 27.01611 | 33.84620 | 2894 ft | 174 kts | 0° |
| 2026-05-06 21:48 | 27.02782 | 33.84531 | 2703 ft | 165 kts | 347° |
| 2026-05-06 21:48 | 27.03881 | 33.84243 | 2492 ft | 160 kts | 343° |
| 2026-05-06 21:48 | 27.04936 | 33.83933 | 2304 ft | 152 kts | 341° |
| 2026-05-06 21:49 | 27.05934 | 33.83636 | 2092 ft | 146 kts | 341° |
| 2026-05-06 21:49 | 27.06913 | 33.83345 | 1924 ft | 144 kts | 340° |
| 2026-05-06 21:49 | 27.07857 | 33.83066 | 1750 ft | 136 kts | 340° |
| 2026-05-06 21:49 | 27.08764 | 33.82795 | 1582 ft | 135 kts | 341° |
| 2026-05-06 21:50 | 27.09679 | 33.82523 | 1396 ft | 137 kts | 341° |
| 2026-05-06 21:50 | 27.10622 | 33.82244 | 1223 ft | 142 kts | 342° |
| 2026-05-06 21:50 | 27.11583 | 33.81960 | 1035 ft | 143 kts | 342° |
| 2026-05-06 21:50 | 27.12556 | 33.81674 | 831 ft | 146 kts | 341° |
| 2026-05-06 21:51 | 27.13539 | 33.81418 | 629 ft | 143 kts | 341° |
| 2026-05-06 21:51 | 27.14487 | 33.81102 | 423 ft | 139 kts | 339° |
| 2026-05-06 21:51 | 27.15418 | 33.80837 | 243 ft | 139 kts | 340° |
| 2026-05-06 21:51 | 27.16354 | 33.80543 | 64 ft | 142 kts | 343° |
| 2026-05-06 21:52 | 27.16930 | 33.80373 | 46 ft | 124 kts | 343° |
| 2026-05-06 21:52 | 27.17360 | 33.80243 | 52 ft | 19 kts | 346° |
| 2026-05-06 21:52 | 27.17422 | 33.80294 | 50 ft | 13 kts | 76° |
| 2026-05-06 21:52 | 27.17440 | 33.80377 | 54 ft | 8 kts | 75° |
| 2026-05-06 21:53 | 27.17450 | 33.80416 | 53 ft | 3 kts | 76° |
| 2026-05-06 21:53 | 27.17454 | 33.80437 | 57 ft | 3 kts | 76° |
| 2026-05-06 21:53 | 27.17474 | 33.80538 | 57 ft | 14 kts | 78° |
| 2026-05-06 21:53 | 27.17470 | 33.80628 | 54 ft | 11 kts | 130° |
| 2026-05-06 21:54 | 27.17405 | 33.80657 | 55 ft | 4 kts | 177° |
| 2026-05-06 21:54 | 27.17383 | 33.80636 | 59 ft | 5 kts | 249° |
| 2026-05-06 21:54 | 27.17374 | 33.80601 | 60 ft | 3 kts | 255° |
| 2026-05-06 21:54 | 27.17369 | 33.80582 | 59 ft | 2 kts | 255° |
| 2026-05-06 21:55 | 27.17368 | 33.80576 | 57 ft | 0 kts | 255° |